sensor_id;sensor_type;location;lat;lon;timestamp;pressure;altitude;pressure_sealevel;temperature;humidity
37892;BME280;45797;47.466;9.486;2023-11-22T00:03:58;95967.06;;;9.12;79.34
37892;BME280;45797;47.466;9.486;2023-11-22T00:09:00;95961.47;;;9.04;79.55
37892;BME280;45797;47.466;9.486;2023-11-22T00:14:01;95951.97;;;9.03;79.62
37892;BME280;45797;47.466;9.486;2023-11-22T00:19:01;95958.03;;;9.04;79.60
37892;BME280;45797;47.466;9.486;2023-11-22T00:24:04;95964.13;;;9.17;79.87
37892;BME280;45797;47.466;9.486;2023-11-22T00:29:06;95970.97;;;9.20;79.58
37892;BME280;45797;47.466;9.486;2023-11-22T00:34:09;95963.13;;;9.20;79.26
37892;BME280;45797;47.466;9.486;2023-11-22T00:39:13;95969.47;;;9.15;79.11
37892;BME280;45797;47.466;9.486;2023-11-22T00:44:22;95973.22;;;9.11;79.43
37892;BME280;45797;47.466;9.486;2023-11-22T00:49:24;95977.97;;;9.19;79.85
37892;BME280;45797;47.466;9.486;2023-11-22T00:54:25;95984.66;;;9.23;79.52
37892;BME280;45797;47.466;9.486;2023-11-22T00:59:27;95984.34;;;9.28;79.78
37892;BME280;45797;47.466;9.486;2023-11-22T01:04:27;95992.75;;;9.33;79.67
37892;BME280;45797;47.466;9.486;2023-11-22T01:09:32;95988.34;;;9.33;79.24
37892;BME280;45797;47.466;9.486;2023-11-22T01:14:33;95989.19;;;9.34;79.43
37892;BME280;45797;47.466;9.486;2023-11-22T01:19:36;95983.13;;;9.33;79.14
37892;BME280;45797;47.466;9.486;2023-11-22T01:30:30;95997.66;;;9.37;79.53
37892;BME280;45797;47.466;9.486;2023-11-22T01:35:33;95996.56;;;9.41;79.44
37892;BME280;45797;47.466;9.486;2023-11-22T01:40:43;95996.66;;;9.40;79.46
37892;BME280;45797;47.466;9.486;2023-11-22T01:45:45;95995.72;;;9.41;79.37
37892;BME280;45797;47.466;9.486;2023-11-22T01:50:47;95993.63;;;9.46;79.06
37892;BME280;45797;47.466;9.486;2023-11-22T01:55:48;95990.53;;;9.54;79.63
37892;BME280;45797;47.466;9.486;2023-11-22T02:00:50;95997.75;;;9.50;79.40
37892;BME280;45797;47.466;9.486;2023-11-22T02:05:52;96008.78;;;9.41;79.08
37892;BME280;45797;47.466;9.486;2023-11-22T02:10:59;96008.91;;;9.25;79.50
37892;BME280;45797;47.466;9.486;2023-11-22T02:16:02;96003.63;;;9.12;79.23
37892;BME280;45797;47.466;9.486;2023-11-22T02:21:12;96008.50;;;9.04;79.54
37892;BME280;45797;47.466;9.486;2023-11-22T02:26:19;96018.09;;;9.04;79.75
37892;BME280;45797;47.466;9.486;2023-11-22T02:31:24;96007.66;;;9.04;79.46
37892;BME280;45797;47.466;9.486;2023-11-22T02:36:26;96027.72;;;9.03;79.78
37892;BME280;45797;47.466;9.486;2023-11-22T02:41:40;96013.81;;;9.03;79.35
37892;BME280;45797;47.466;9.486;2023-11-22T02:46:44;96025.00;;;9.05;79.26
37892;BME280;45797;47.466;9.486;2023-11-22T02:51:44;96031.81;;;9.07;79.72
37892;BME280;45797;47.466;9.486;2023-11-22T02:56:47;96024.69;;;9.09;79.36
37892;BME280;45797;47.466;9.486;2023-11-22T03:01:48;96031.53;;;9.12;79.75
37892;BME280;45797;47.466;9.486;2023-11-22T03:07:02;96026.09;;;9.15;79.55
37892;BME280;45797;47.466;9.486;2023-11-22T03:12:09;96035.72;;;9.14;79.59
37892;BME280;45797;47.466;9.486;2023-11-22T03:17:11;96030.41;;;9.16;79.56
37892;BME280;45797;47.466;9.486;2023-11-22T03:22:13;96032.16;;;9.15;79.59
37892;BME280;45797;47.466;9.486;2023-11-22T03:27:14;96034.78;;;9.15;79.53
37892;BME280;45797;47.466;9.486;2023-11-22T03:32:18;96046.38;;;9.11;79.62
37892;BME280;45797;47.466;9.486;2023-11-22T03:37:19;96049.94;;;9.10;79.47
37892;BME280;45797;47.466;9.486;2023-11-22T03:42:26;96044.69;;;9.10;79.42
37892;BME280;45797;47.466;9.486;2023-11-22T03:47:29;96053.44;;;9.09;79.54
37892;BME280;45797;47.466;9.486;2023-11-22T03:52:36;96055.78;;;9.14;79.46
37892;BME280;45797;47.466;9.486;2023-11-22T03:57:42;96066.03;;;9.17;79.12
37892;BME280;45797;47.466;9.486;2023-11-22T04:02:44;96065.94;;;9.19;79.57
37892;BME280;45797;47.466;9.486;2023-11-22T04:07:51;96065.94;;;9.19;79.71
37892;BME280;45797;47.466;9.486;2023-11-22T04:12:52;96085.09;;;9.19;79.53
37892;BME280;45797;47.466;9.486;2023-11-22T04:17:53;96069.31;;;9.21;80.04
37892;BME280;45797;47.466;9.486;2023-11-22T04:22:57;96079.94;;;9.32;79.90
37892;BME280;45797;47.466;9.486;2023-11-22T04:27:58;96084.69;;;9.39;79.88
37892;BME280;45797;47.466;9.486;2023-11-22T04:33:01;96088.16;;;9.40;79.84
37892;BME280;45797;47.466;9.486;2023-11-22T04:38:02;96102.59;;;9.45;79.86
37892;BME280;45797;47.466;9.486;2023-11-22T04:43:08;96107.25;;;9.55;80.29
37892;BME280;45797;47.466;9.486;2023-11-22T04:48:08;96106.97;;;9.59;80.18
37892;BME280;45797;47.466;9.486;2023-11-22T04:53:10;96110.78;;;9.68;79.87
37892;BME280;45797;47.466;9.486;2023-11-22T04:58:13;96105.44;;;9.69;79.60
37892;BME280;45797;47.466;9.486;2023-11-22T05:03:13;96108.44;;;9.63;80.61
37892;BME280;45797;47.466;9.486;2023-11-22T05:08:13;96125.28;;;9.59;80.45
37892;BME280;45797;47.466;9.486;2023-11-22T05:13:14;96123.34;;;9.49;80.47
37892;BME280;45797;47.466;9.486;2023-11-22T05:18:15;96139.94;;;9.62;80.71
37892;BME280;45797;47.466;9.486;2023-11-22T05:23:23;96137.41;;;9.60;80.14
37892;BME280;45797;47.466;9.486;2023-11-22T05:28:25;96149.19;;;9.67;80.15
37892;BME280;45797;47.466;9.486;2023-11-22T05:33:27;96148.59;;;9.77;80.65
37892;BME280;45797;47.466;9.486;2023-11-22T05:38:28;96169.00;;;9.98;80.34
37892;BME280;45797;47.466;9.486;2023-11-22T05:43:28;96172.25;;;10.02;80.14
37892;BME280;45797;47.466;9.486;2023-11-22T05:48:29;96192.53;;;9.98;80.20
37892;BME280;45797;47.466;9.486;2023-11-22T05:53:38;96193.22;;;9.88;79.93
37892;BME280;45797;47.466;9.486;2023-11-22T05:58:42;96198.19;;;9.78;79.90
37892;BME280;45797;47.466;9.486;2023-11-22T06:04:08;96192.97;;;9.78;80.30
37892;BME280;45797;47.466;9.486;2023-11-22T06:09:17;96195.09;;;9.86;80.51
37892;BME280;45797;47.466;9.486;2023-11-22T06:14:22;96198.63;;;9.99;80.56
37892;BME280;45797;47.466;9.486;2023-11-22T06:19:22;96197.03;;;9.96;80.35
37892;BME280;45797;47.466;9.486;2023-11-22T06:24:27;96208.72;;;9.91;80.65
37892;BME280;45797;47.466;9.486;2023-11-22T06:29:27;96220.88;;;9.92;80.49
37892;BME280;45797;47.466;9.486;2023-11-22T06:34:45;96229.84;;;9.88;80.32
37892;BME280;45797;47.466;9.486;2023-11-22T06:39:49;96230.69;;;9.74;80.38
37892;BME280;45797;47.466;9.486;2023-11-22T06:44:57;96237.69;;;9.73;80.43
37892;BME280;45797;47.466;9.486;2023-11-22T06:50:01;96249.13;;;9.58;80.09
37892;BME280;45797;47.466;9.486;2023-11-22T06:55:10;96265.44;;;9.33;79.71
37892;BME280;45797;47.466;9.486;2023-11-22T07:00:12;96276.13;;;9.14;80.41
37892;BME280;45797;47.466;9.486;2023-11-22T07:05:12;96287.75;;;9.09;80.69
37892;BME280;45797;47.466;9.486;2023-11-22T07:10:15;96297.75;;;9.02;80.41
37892;BME280;45797;47.466;9.486;2023-11-22T07:15:17;96310.28;;;8.81;80.38
37892;BME280;45797;47.466;9.486;2023-11-22T07:20:25;96323.53;;;8.63;80.14
37892;BME280;45797;47.466;9.486;2023-11-22T07:25:53;96346.31;;;8.43;80.54
37892;BME280;45797;47.466;9.486;2023-11-22T07:31:03;96358.81;;;8.54;81.34
37892;BME280;45797;47.466;9.486;2023-11-22T07:36:06;96369.06;;;8.57;81.06
37892;BME280;45797;47.466;9.486;2023-11-22T07:41:08;96380.84;;;8.48;81.08
37892;BME280;45797;47.466;9.486;2023-11-22T07:46:11;96384.03;;;8.38;80.66
37892;BME280;45797;47.466;9.486;2023-11-22T07:51:34;96380.03;;;8.30;80.98
37892;BME280;45797;47.466;9.486;2023-11-22T07:56:36;96403.88;;;8.24;80.47
37892;BME280;45797;47.466;9.486;2023-11-22T08:01:37;96408.78;;;8.13;80.60
37892;BME280;45797;47.466;9.486;2023-11-22T08:06:40;96413.06;;;8.14;80.88
37892;BME280;45797;47.466;9.486;2023-11-22T08:11:42;96424.50;;;7.96;80.41
37892;BME280;45797;47.466;9.486;2023-11-22T08:16:44;96436.38;;;7.84;80.45
37892;BME280;45797;47.466;9.486;2023-11-22T08:21:46;96443.06;;;7.72;80.96
37892;BME280;45797;47.466;9.486;2023-11-22T08:26:49;96437.00;;;7.72;80.94
37892;BME280;45797;47.466;9.486;2023-11-22T08:31:51;96437.91;;;7.88;81.24
37892;BME280;45797;47.466;9.486;2023-11-22T08:36:57;96448.47;;;7.85;81.14
37892;BME280;45797;47.466;9.486;2023-11-22T08:42:01;96454.03;;;7.79;80.82
37892;BME280;45797;47.466;9.486;2023-11-22T08:47:06;96456.00;;;7.74;80.46
37892;BME280;45797;47.466;9.486;2023-11-22T08:52:13;96459.53;;;7.73;80.50
37892;BME280;45797;47.466;9.486;2023-11-22T08:57:18;96479.94;;;7.82;81.08
37892;BME280;45797;47.466;9.486;2023-11-22T09:02:18;96485.78;;;7.87;80.46
37892;BME280;45797;47.466;9.486;2023-11-22T09:07:23;96497.09;;;7.86;79.97
37892;BME280;45797;47.466;9.486;2023-11-22T09:12:27;96509.25;;;7.87;80.62
37892;BME280;45797;47.466;9.486;2023-11-22T09:17:30;96493.28;;;7.93;80.23
37892;BME280;45797;47.466;9.486;2023-11-22T09:22:35;96508.94;;;8.11;80.54
37892;BME280;45797;47.466;9.486;2023-11-22T09:27:43;96506.41;;;8.26;79.86
37892;BME280;45797;47.466;9.486;2023-11-22T09:32:53;96509.00;;;8.26;80.14
37892;BME280;45797;47.466;9.486;2023-11-22T09:37:58;96508.91;;;8.28;79.65
37892;BME280;45797;47.466;9.486;2023-11-22T09:42:59;96502.94;;;8.26;80.04
37892;BME280;45797;47.466;9.486;2023-11-22T09:48:03;96511.31;;;8.15;80.63
37892;BME280;45797;47.466;9.486;2023-11-22T09:53:11;96514.78;;;8.16;81.00
37892;BME280;45797;47.466;9.486;2023-11-22T09:58:12;96509.84;;;8.10;80.95
37892;BME280;45797;47.466;9.486;2023-11-22T10:03:13;96514.78;;;8.16;81.13
37892;BME280;45797;47.466;9.486;2023-11-22T10:08:17;96512.09;;;8.17;81.00
37892;BME280;45797;47.466;9.486;2023-11-22T10:13:20;96528.56;;;8.00;81.12
37892;BME280;45797;47.466;9.486;2023-11-22T10:18:21;96526.44;;;7.91;81.06
37892;BME280;45797;47.466;9.486;2023-11-22T10:23:25;96519.97;;;7.81;80.63
37892;BME280;45797;47.466;9.486;2023-11-22T10:28:29;96520.91;;;7.80;80.70
37892;BME280;45797;47.466;9.486;2023-11-22T10:33:31;96520.13;;;7.78;80.51
37892;BME280;45797;47.466;9.486;2023-11-22T10:38:33;96519.28;;;7.78;79.76
37892;BME280;45797;47.466;9.486;2023-11-22T10:43:46;96520.34;;;7.73;79.50
37892;BME280;45797;47.466;9.486;2023-11-22T10:48:59;96506.84;;;7.65;79.52
37892;BME280;45797;47.466;9.486;2023-11-22T10:54:02;96524.41;;;7.62;79.56
37892;BME280;45797;47.466;9.486;2023-11-22T10:59:10;96526.09;;;7.63;79.07
37892;BME280;45797;47.466;9.486;2023-11-22T11:04:43;96531.66;;;7.55;79.44
37892;BME280;45797;47.466;9.486;2023-11-22T11:09:57;96537.72;;;7.56;79.12
37892;BME280;45797;47.466;9.486;2023-11-22T11:15:01;96549.06;;;7.55;78.92
37892;BME280;45797;47.466;9.486;2023-11-22T11:20:04;96555.56;;;7.46;79.00
37892;BME280;45797;47.466;9.486;2023-11-22T11:25:07;96562.34;;;7.50;79.30
37892;BME280;45797;47.466;9.486;2023-11-22T11:36:04;96577.69;;;7.37;78.89
37892;BME280;45797;47.466;9.486;2023-11-22T11:41:18;96576.84;;;7.37;78.93
37892;BME280;45797;47.466;9.486;2023-11-22T11:46:18;96563.31;;;7.48;78.54
37892;BME280;45797;47.466;9.486;2023-11-22T11:51:24;96567.16;;;7.58;78.38
37892;BME280;45797;47.466;9.486;2023-11-22T11:56:35;96573.94;;;7.62;78.29
37892;BME280;45797;47.466;9.486;2023-11-22T12:01:39;96562.03;;;7.56;77.86
37892;BME280;45797;47.466;9.486;2023-11-22T12:06:39;96570.50;;;7.42;78.01
37892;BME280;45797;47.466;9.486;2023-11-22T12:11:41;96581.50;;;7.30;78.33
37892;BME280;45797;47.466;9.486;2023-11-22T12:16:57;96566.44;;;7.18;78.94
37892;BME280;45797;47.466;9.486;2023-11-22T12:21:59;96555.38;;;7.13;78.50
37892;BME280;45797;47.466;9.486;2023-11-22T12:27:09;96551.53;;;7.03;78.57
37892;BME280;45797;47.466;9.486;2023-11-22T12:32:11;96557.00;;;6.97;78.51
37892;BME280;45797;47.466;9.486;2023-11-22T12:37:13;96560.59;;;6.94;78.21
37892;BME280;45797;47.466;9.486;2023-11-22T12:42:24;96563.69;;;6.83;78.84
37892;BME280;45797;47.466;9.486;2023-11-22T12:47:34;96588.34;;;6.75;78.95
37892;BME280;45797;47.466;9.486;2023-11-22T12:52:40;96578.22;;;6.69;79.03
37892;BME280;45797;47.466;9.486;2023-11-22T12:58:00;96571.31;;;6.68;78.78
37892;BME280;45797;47.466;9.486;2023-11-22T13:03:06;96579.91;;;6.70;79.02
37892;BME280;45797;47.466;9.486;2023-11-22T13:08:07;96605.34;;;6.63;78.48
37892;BME280;45797;47.466;9.486;2023-11-22T13:13:08;96606.22;;;6.64;79.19
37892;BME280;45797;47.466;9.486;2023-11-22T13:18:23;96616.09;;;6.55;78.45
37892;BME280;45797;47.466;9.486;2023-11-22T13:23:25;96599.63;;;6.55;78.63
37892;BME280;45797;47.466;9.486;2023-11-22T13:28:43;96601.84;;;6.44;78.94
37892;BME280;45797;47.466;9.486;2023-11-22T13:33:51;96606.25;;;6.42;79.13
37892;BME280;45797;47.466;9.486;2023-11-22T13:38:52;96602.25;;;6.55;79.33
37892;BME280;45797;47.466;9.486;2023-11-22T13:44:04;96612.66;;;6.55;79.11
37892;BME280;45797;47.466;9.486;2023-11-22T13:49:04;96597.16;;;6.52;79.47
37892;BME280;45797;47.466;9.486;2023-11-22T13:54:11;96604.88;;;6.53;79.13
37892;BME280;45797;47.466;9.486;2023-11-22T13:59:14;96615.81;;;6.41;80.01
37892;BME280;45797;47.466;9.486;2023-11-22T14:04:16;96647.44;;;6.32;78.92
37892;BME280;45797;47.466;9.486;2023-11-22T14:09:20;96657.44;;;6.41;79.99
37892;BME280;45797;47.466;9.486;2023-11-22T14:14:23;96657.00;;;6.52;79.67
37892;BME280;45797;47.466;9.486;2023-11-22T14:19:23;96665.94;;;6.46;79.62
37892;BME280;45797;47.466;9.486;2023-11-22T14:24:24;96674.25;;;6.54;79.62
37892;BME280;45797;47.466;9.486;2023-11-22T14:29:27;96687.06;;;6.59;79.71
37892;BME280;45797;47.466;9.486;2023-11-22T14:34:28;96682.94;;;6.53;79.18
37892;BME280;45797;47.466;9.486;2023-11-22T14:39:34;96685.94;;;6.44;79.41
37892;BME280;45797;47.466;9.486;2023-11-22T14:44:45;96689.88;;;6.54;79.45
37892;BME280;45797;47.466;9.486;2023-11-22T14:49:53;96697.47;;;6.59;79.36
37892;BME280;45797;47.466;9.486;2023-11-22T14:55:03;96693.44;;;6.52;78.97
37892;BME280;45797;47.466;9.486;2023-11-22T15:00:10;96697.84;;;6.50;79.18
37892;BME280;45797;47.466;9.486;2023-11-22T15:05:16;96718.13;;;6.42;79.20
37892;BME280;45797;47.466;9.486;2023-11-22T15:10:17;96730.56;;;6.35;79.11
37892;BME280;45797;47.466;9.486;2023-11-22T15:15:17;96737.56;;;6.33;79.47
37892;BME280;45797;47.466;9.486;2023-11-22T15:20:20;96749.06;;;6.49;79.21
37892;BME280;45797;47.466;9.486;2023-11-22T15:25:22;96753.72;;;6.83;79.26
37892;BME280;45797;47.466;9.486;2023-11-22T15:30:22;96750.41;;;6.80;79.14
37892;BME280;45797;47.466;9.486;2023-11-22T15:35:23;96749.66;;;6.56;78.51
37892;BME280;45797;47.466;9.486;2023-11-22T15:40:23;96755.69;;;6.35;78.90
37892;BME280;45797;47.466;9.486;2023-11-22T15:45:36;96745.16;;;6.17;78.92
37892;BME280;45797;47.466;9.486;2023-11-22T15:50:37;96736.66;;;6.12;79.13
37892;BME280;45797;47.466;9.486;2023-11-22T15:55:44;96738.53;;;6.09;79.41
37892;BME280;45797;47.466;9.486;2023-11-22T16:00:45;96721.06;;;6.12;79.46
37892;BME280;45797;47.466;9.486;2023-11-22T16:05:46;96716.97;;;6.07;79.00
37892;BME280;45797;47.466;9.486;2023-11-22T16:10:51;96724.00;;;6.03;78.90
37892;BME280;45797;47.466;9.486;2023-11-22T16:15:56;96719.06;;;5.97;78.55
37892;BME280;45797;47.466;9.486;2023-11-22T16:21:01;96715.66;;;5.95;78.93
37892;BME280;45797;47.466;9.486;2023-11-22T16:26:05;96727.81;;;5.94;78.97
37892;BME280;45797;47.466;9.486;2023-11-22T16:31:05;96776.38;;;5.94;79.00
37892;BME280;45797;47.466;9.486;2023-11-22T16:36:08;96782.41;;;5.94;79.01
37892;BME280;45797;47.466;9.486;2023-11-22T16:41:19;96801.66;;;5.89;78.67
37892;BME280;45797;47.466;9.486;2023-11-22T16:46:27;96815.56;;;5.88;78.43
37892;BME280;45797;47.466;9.486;2023-11-22T16:51:40;96829.75;;;5.79;78.60
37892;BME280;45797;47.466;9.486;2023-11-22T16:56:44;96823.00;;;5.73;78.33
37892;BME280;45797;47.466;9.486;2023-11-22T17:01:45;96813.06;;;5.61;78.89
37892;BME280;45797;47.466;9.486;2023-11-22T17:06:56;96798.38;;;5.60;79.10
37892;BME280;45797;47.466;9.486;2023-11-22T17:12:01;96809.72;;;5.58;79.13
37892;BME280;45797;47.466;9.486;2023-11-22T17:17:03;96809.69;;;5.59;79.18
37892;BME280;45797;47.466;9.486;2023-11-22T17:22:03;96812.28;;;5.59;79.10
37892;BME280;45797;47.466;9.486;2023-11-22T17:27:21;96818.34;;;5.58;78.68
37892;BME280;45797;47.466;9.486;2023-11-22T17:32:23;96823.41;;;5.63;78.66
37892;BME280;45797;47.466;9.486;2023-11-22T17:37:32;96814.97;;;5.56;79.02
37892;BME280;45797;47.466;9.486;2023-11-22T17:42:34;96828.06;;;5.53;79.15
37892;BME280;45797;47.466;9.486;2023-11-22T17:47:43;96833.28;;;5.53;78.92
37892;BME280;45797;47.466;9.486;2023-11-22T17:52:45;96824.50;;;5.56;78.60
37892;BME280;45797;47.466;9.486;2023-11-22T17:57:47;96825.28;;;5.59;78.42
37892;BME280;45797;47.466;9.486;2023-11-22T18:02:57;96825.38;;;5.56;78.80
37892;BME280;45797;47.466;9.486;2023-11-22T18:08:00;96822.75;;;5.56;78.99
37892;BME280;45797;47.466;9.486;2023-11-22T18:13:13;96841.00;;;5.55;78.90
37892;BME280;45797;47.466;9.486;2023-11-22T18:18:15;96840.88;;;5.58;78.97
37892;BME280;45797;47.466;9.486;2023-11-22T18:23:23;96846.94;;;5.58;78.75
37892;BME280;45797;47.466;9.486;2023-11-22T18:28:24;96861.59;;;5.61;78.93
37892;BME280;45797;47.466;9.486;2023-11-22T18:33:26;96873.88;;;5.56;78.73
37892;BME280;45797;47.466;9.486;2023-11-22T18:38:26;96887.63;;;5.59;79.36
37892;BME280;45797;47.466;9.486;2023-11-22T18:43:29;96883.31;;;5.58;78.99
37892;BME280;45797;47.466;9.486;2023-11-22T18:48:31;96878.03;;;5.61;78.46
37892;BME280;45797;47.466;9.486;2023-11-22T18:53:32;96889.88;;;5.68;78.97
37892;BME280;45797;47.466;9.486;2023-11-22T18:58:35;96884.53;;;5.73;78.94
37892;BME280;45797;47.466;9.486;2023-11-22T19:03:36;96882.66;;;5.77;78.61
37892;BME280;45797;47.466;9.486;2023-11-22T19:08:37;96904.28;;;5.79;78.96
37892;BME280;45797;47.466;9.486;2023-11-22T19:13:41;96899.16;;;5.76;78.52
37892;BME280;45797;47.466;9.486;2023-11-22T19:18:41;96893.25;;;5.72;78.29
37892;BME280;45797;47.466;9.486;2023-11-22T19:23:59;96889.84;;;5.70;78.25
37892;BME280;45797;47.466;9.486;2023-11-22T19:29:11;96890.63;;;5.72;78.84
37892;BME280;45797;47.466;9.486;2023-11-22T19:34:13;96898.31;;;5.75;78.61
37892;BME280;45797;47.466;9.486;2023-11-22T19:39:18;96914.09;;;5.70;78.58
37892;BME280;45797;47.466;9.486;2023-11-22T19:44:21;96913.97;;;5.73;78.34
37892;BME280;45797;47.466;9.486;2023-11-22T19:49:22;96918.31;;;5.73;78.69
37892;BME280;45797;47.466;9.486;2023-11-22T19:54:40;96919.19;;;5.73;78.79
37892;BME280;45797;47.466;9.486;2023-11-22T19:59:41;96919.22;;;5.72;78.38
37892;BME280;45797;47.466;9.486;2023-11-22T20:04:48;96914.16;;;5.69;78.18
37892;BME280;45797;47.466;9.486;2023-11-22T20:09:49;96916.69;;;5.70;78.71
37892;BME280;45797;47.466;9.486;2023-11-22T20:14:50;96905.38;;;5.71;78.32
37892;BME280;45797;47.466;9.486;2023-11-22T20:19:51;96904.47;;;5.72;78.25
37892;BME280;45797;47.466;9.486;2023-11-22T20:24:56;96891.56;;;5.71;78.42
37892;BME280;45797;47.466;9.486;2023-11-22T20:29:57;96887.25;;;5.70;78.44
37892;BME280;45797;47.466;9.486;2023-11-22T20:34:59;96876.94;;;5.67;78.45
37892;BME280;45797;47.466;9.486;2023-11-22T20:39:59;96881.34;;;5.65;78.53
37892;BME280;45797;47.466;9.486;2023-11-22T20:45:02;96862.31;;;5.64;78.68
37892;BME280;45797;47.466;9.486;2023-11-22T20:50:11;96861.41;;;5.65;78.38
37892;BME280;45797;47.466;9.486;2023-11-22T20:55:11;96847.56;;;5.65;78.75
37892;BME280;45797;47.466;9.486;2023-11-22T21:00:11;96849.28;;;5.66;78.64
37892;BME280;45797;47.466;9.486;2023-11-22T21:05:12;96854.41;;;5.67;78.42
37892;BME280;45797;47.466;9.486;2023-11-22T21:10:12;96836.34;;;5.64;78.38
37892;BME280;45797;47.466;9.486;2023-11-22T21:15:15;96833.72;;;5.64;78.83
37892;BME280;45797;47.466;9.486;2023-11-22T21:20:18;96848.41;;;5.65;78.25
37892;BME280;45797;47.466;9.486;2023-11-22T21:25:20;96833.69;;;5.66;78.38
37892;BME280;45797;47.466;9.486;2023-11-22T21:30:22;96834.53;;;5.66;78.63
37892;BME280;45797;47.466;9.486;2023-11-22T21:35:23;96836.34;;;5.64;78.46
37892;BME280;45797;47.466;9.486;2023-11-22T21:40:23;96830.34;;;5.62;78.48
37892;BME280;45797;47.466;9.486;2023-11-22T21:45:25;96822.69;;;5.59;78.36
37892;BME280;45797;47.466;9.486;2023-11-22T21:50:30;96820.88;;;5.61;78.33
37892;BME280;45797;47.466;9.486;2023-11-22T21:55:47;96806.00;;;5.65;78.66
37892;BME280;45797;47.466;9.486;2023-11-22T22:00:51;96811.03;;;5.69;78.76
37892;BME280;45797;47.466;9.486;2023-11-22T22:05:52;96826.63;;;5.69;78.31
37892;BME280;45797;47.466;9.486;2023-11-22T22:10:56;96825.81;;;5.67;78.61
37892;BME280;45797;47.466;9.486;2023-11-22T22:15:59;96828.41;;;5.69;78.67
37892;BME280;45797;47.466;9.486;2023-11-22T22:21:00;96845.69;;;5.70;78.34
37892;BME280;45797;47.466;9.486;2023-11-22T22:26:01;96856.91;;;5.70;78.57
37892;BME280;45797;47.466;9.486;2023-11-22T22:31:13;96859.53;;;5.70;78.35
37892;BME280;45797;47.466;9.486;2023-11-22T22:36:17;96852.50;;;5.72;78.86
37892;BME280;45797;47.466;9.486;2023-11-22T22:41:38;96859.53;;;5.70;78.33
37892;BME280;45797;47.466;9.486;2023-11-22T22:46:43;96873.44;;;5.68;78.77
37892;BME280;45797;47.466;9.486;2023-11-22T22:51:43;96864.81;;;5.67;78.79
37892;BME280;45797;47.466;9.486;2023-11-22T22:56:44;96864.78;;;5.69;79.03
37892;BME280;45797;47.466;9.486;2023-11-22T23:01:47;96869.97;;;5.69;78.85
37892;BME280;45797;47.466;9.486;2023-11-22T23:06:47;96882.97;;;5.69;78.74
37892;BME280;45797;47.466;9.486;2023-11-22T23:11:52;96887.56;;;5.61;78.72
37892;BME280;45797;47.466;9.486;2023-11-22T23:16:55;96871.22;;;5.57;78.60
37892;BME280;45797;47.466;9.486;2023-11-22T23:21:55;96863.50;;;5.56;78.51
37892;BME280;45797;47.466;9.486;2023-11-22T23:26:56;96841.00;;;5.55;78.84
37892;BME280;45797;47.466;9.486;2023-11-22T23:31:58;96835.81;;;5.55;79.24
37892;BME280;45797;47.466;9.486;2023-11-22T23:37:00;96833.16;;;5.56;78.54
37892;BME280;45797;47.466;9.486;2023-11-22T23:42:03;96823.72;;;5.54;78.81
37892;BME280;45797;47.466;9.486;2023-11-22T23:47:10;96816.84;;;5.53;78.58
37892;BME280;45797;47.466;9.486;2023-11-22T23:52:26;96812.59;;;5.50;78.82
37892;BME280;45797;47.466;9.486;2023-11-22T23:57:37;96824.56;;;5.54;78.56
